createdAt,value
2022-10-09T00:00:21.686Z,4.10
2022-10-09T00:02:53.177Z,4.40
2022-10-09T00:08:39.031Z,4.93
2022-10-09T00:16:55.112Z,3.83
2022-10-09T00:19:29.138Z,4.50
2022-10-09T00:22:13.374Z,4.63
2022-10-09T00:24:43.132Z,5.40
2022-10-09T00:27:15.093Z,5.70
2022-10-09T00:32:52.863Z,4.03
2022-10-09T00:35:28.268Z,3.83
2022-10-09T00:38:13.856Z,4.23
2022-10-09T00:43:57.765Z,3.40
2022-10-09T00:46:58.508Z,4.17
2022-10-09T00:49:47.417Z,3.77
2022-10-09T00:52:33.600Z,4.40
2022-10-09T00:55:19.678Z,4.90
2022-10-09T01:12:27.422Z,4.93
2022-10-09T01:18:52.767Z,4.10
2022-10-09T01:21:28.054Z,4.43
2022-10-09T01:24:32.403Z,5.00
2022-10-09T01:27:30.004Z,5.03
2022-10-09T01:30:24.145Z,5.50
2022-10-09T01:33:00.310Z,5.20
2022-10-09T01:35:30.321Z,5.03
2022-10-09T01:38:04.382Z,5.00
2022-10-09T01:43:18.748Z,5.03
2022-10-09T01:48:57.188Z,5.67
2022-10-09T01:54:28.620Z,5.77
2022-10-09T01:59:52.002Z,6.00
2022-10-09T02:02:24.305Z,5.80
2022-10-09T02:04:54.881Z,5.53
2022-10-09T02:07:27.416Z,5.53
2022-10-09T02:09:56.486Z,6.20
2022-10-09T02:12:28.356Z,6.07
2022-10-09T02:14:57.952Z,6.37
2022-10-09T02:17:32.626Z,5.67
2022-10-09T02:20:08.267Z,5.70
2022-10-09T02:22:41.217Z,5.90
2022-10-09T02:25:10.795Z,5.47
2022-10-09T02:27:40.329Z,6.07
2022-10-09T02:30:10.505Z,5.37
2022-10-09T02:32:42.343Z,5.67
2022-10-09T02:35:11.710Z,5.30
2022-10-09T02:37:40.364Z,4.90
2022-10-09T02:40:10.896Z,5.27
2022-10-09T02:42:39.464Z,5.50
2022-10-09T02:45:09.296Z,5.53
2022-10-09T02:47:37.894Z,5.87
2022-10-09T02:50:09.731Z,4.93
2022-10-09T02:52:38.148Z,6.47
2022-10-09T02:55:07.192Z,5.30
2022-10-09T02:57:35.634Z,6.10
2022-10-09T03:00:04.357Z,5.07
2022-10-09T03:02:32.969Z,5.07
2022-10-09T03:05:01.849Z,6.23
2022-10-09T03:07:32.207Z,7.03
2022-10-09T03:10:01.592Z,5.60
2022-10-09T03:12:29.812Z,5.90
2022-10-09T03:14:58.288Z,5.47
2022-10-09T03:17:27.058Z,5.73
2022-10-09T03:19:55.661Z,5.57
2022-10-09T03:22:24.068Z,5.97
2022-10-09T03:24:53.984Z,5.60
2022-10-09T03:27:22.438Z,5.27
2022-10-09T03:29:50.910Z,5.47
2022-10-09T03:32:19.489Z,5.90
2022-10-09T03:34:47.933Z,5.77
2022-10-09T03:37:16.365Z,5.63
2022-10-09T03:39:44.975Z,5.73
2022-10-09T03:42:15.223Z,5.80
2022-10-09T03:44:43.824Z,5.83
2022-10-09T03:47:12.428Z,7.03
2022-10-09T03:49:41.261Z,6.10
2022-10-09T03:52:09.799Z,5.67
2022-10-09T03:54:38.560Z,5.27
2022-10-09T03:57:07.240Z,5.73
2022-10-09T03:59:38.147Z,5.03
2022-10-09T04:02:06.693Z,5.50
2022-10-09T04:04:35.824Z,5.27
2022-10-09T04:07:04.459Z,4.50
2022-10-09T04:09:33.377Z,5.10
2022-10-09T04:12:02.595Z,4.60
2022-10-09T04:14:31.347Z,5.13
2022-10-09T04:17:02.040Z,4.37
2022-10-09T04:19:31.071Z,5.00
2022-10-09T04:21:59.724Z,4.03
2022-10-09T04:24:29.696Z,5.07
2022-10-09T04:26:58.321Z,4.83
2022-10-09T04:29:26.959Z,4.77
2022-10-09T04:31:55.640Z,5.23
2022-10-09T04:34:26.194Z,4.93
2022-10-09T04:36:54.653Z,4.23
2022-10-09T04:39:23.421Z,4.43
2022-10-09T04:41:52.438Z,4.50
2022-10-09T04:44:21.073Z,4.67
2022-10-09T04:46:53.246Z,4.60
2022-10-09T04:49:21.714Z,4.50
2022-10-09T04:51:51.830Z,4.47
2022-10-09T04:54:20.320Z,4.40
2022-10-09T04:56:48.795Z,4.67
2022-10-09T04:59:17.298Z,4.20
2022-10-09T05:01:46.107Z,4.80
2022-10-09T05:04:14.769Z,4.70
2022-10-09T05:06:43.242Z,4.40
2022-10-09T05:09:13.189Z,4.50
2022-10-09T05:11:42.839Z,4.90
2022-10-09T05:14:11.924Z,4.43
2022-10-09T05:17:08.368Z,4.00
2022-10-09T05:19:29.270Z,5.33
2022-10-09T05:21:57.787Z,4.90
2022-10-09T05:24:27.910Z,4.03
2022-10-09T05:26:56.622Z,4.63
2022-10-09T05:29:25.239Z,4.67
2022-10-09T05:31:54.194Z,4.77
2022-10-09T05:34:38.493Z,5.10
2022-10-09T05:37:07.238Z,4.47
2022-10-09T05:39:41.021Z,4.73
2022-10-09T05:42:10.722Z,5.03
2022-10-09T05:44:40.019Z,4.40
2022-10-09T05:47:09.288Z,4.53
2022-10-09T05:49:38.690Z,4.73
2022-10-09T05:52:08.270Z,4.30
2022-10-09T05:54:40.128Z,4.30
2022-10-09T05:57:10.817Z,4.20
2022-10-09T05:59:41.023Z,4.40
2022-10-09T06:02:10.925Z,3.83
2022-10-09T06:04:40.670Z,4.83
2022-10-09T06:07:09.303Z,4.23
2022-10-09T06:09:39.623Z,4.67
2022-10-09T06:12:08.468Z,4.43
2022-10-09T06:14:36.891Z,4.03
2022-10-09T06:17:05.024Z,4.00
2022-10-09T06:19:35.848Z,3.60
2022-10-09T06:22:04.392Z,3.87
2022-10-09T06:24:32.803Z,4.00
2022-10-09T06:27:02.674Z,3.77
2022-10-09T06:29:31.592Z,4.13
2022-10-09T06:32:02.841Z,4.07
2022-10-09T06:34:32.545Z,3.80
2022-10-09T06:37:02.900Z,3.57
2022-10-09T06:39:31.739Z,3.83
2022-10-09T06:42:00.402Z,3.63
2022-10-09T06:44:31.507Z,4.03
2022-10-09T06:47:09.681Z,4.30
2022-10-09T06:49:38.569Z,4.30
2022-10-09T06:52:09.899Z,4.50
2022-10-09T06:54:42.158Z,4.37
2022-10-09T06:57:18.014Z,3.97
2022-10-09T06:59:50.365Z,4.20
2022-10-09T07:02:19.289Z,4.27
2022-10-09T07:04:49.052Z,4.03
2022-10-09T07:07:17.651Z,4.30
2022-10-09T07:09:46.431Z,4.17
2022-10-09T07:12:14.902Z,3.87
2022-10-09T07:14:43.344Z,4.13
2022-10-09T07:17:13.402Z,4.20
2022-10-09T07:19:41.858Z,4.37
2022-10-09T07:22:11.555Z,3.83
2022-10-09T07:24:40.195Z,4.30
2022-10-09T07:27:08.812Z,3.87
2022-10-09T07:29:37.705Z,4.03
2022-10-09T07:32:10.352Z,4.50
2022-10-09T07:34:40.745Z,4.47
2022-10-09T07:37:09.909Z,3.93
2022-10-09T07:39:42.876Z,4.53
2022-10-09T07:42:14.708Z,4.17
2022-10-09T07:44:44.337Z,4.30
2022-10-09T07:47:14.655Z,4.93
2022-10-09T07:49:45.456Z,4.40
2022-10-09T08:16:39.209Z,4.60
2022-10-09T08:19:14.576Z,3.83
2022-10-09T08:21:50.466Z,4.83
2022-10-09T08:27:10.862Z,4.50
2022-10-09T10:07:14.460Z,4.50
2022-10-09T10:09:42.479Z,4.40
2022-10-09T10:12:20.537Z,4.87
2022-10-09T10:37:56.515Z,3.17
2022-10-09T10:40:50.070Z,3.27
2022-10-09T10:46:18.729Z,4.13
2022-10-09T10:52:10.988Z,3.37
2022-10-09T10:54:47.866Z,3.53
2022-10-09T10:58:04.290Z,3.40
2022-10-09T11:16:55.851Z,3.07
2022-10-09T11:22:47.691Z,3.10
2022-10-09T11:26:18.603Z,3.07
2022-10-09T11:29:03.404Z,3.53
2022-10-09T11:31:49.572Z,3.10
2022-10-09T11:34:25.776Z,2.83
2022-10-09T11:36:58.471Z,3.40
2022-10-09T11:39:35.504Z,3.60
2022-10-09T11:42:21.355Z,3.30
2022-10-09T11:45:03.937Z,3.20
2022-10-09T11:47:42.878Z,3.23
2022-10-09T11:50:33.342Z,3.53
2022-10-09T11:53:21.171Z,3.43
2022-10-09T11:55:52.322Z,3.70
2022-10-09T12:01:35.299Z,3.20
2022-10-09T12:04:54.449Z,3.43
2022-10-09T12:13:22.115Z,3.17
2022-10-09T12:16:06.656Z,3.50
2022-10-09T12:18:59.553Z,3.07
2022-10-09T12:21:49.228Z,3.00
2022-10-09T12:24:36.819Z,3.87
2022-10-09T12:27:06.901Z,2.93
2022-10-09T12:29:47.434Z,3.33
2022-10-09T12:32:44.642Z,3.63
2022-10-09T12:35:29.893Z,3.10
2022-10-09T12:38:46.225Z,2.83
2022-10-09T12:41:33.485Z,3.47
2022-10-09T12:44:28.236Z,2.90
2022-10-09T12:47:11.237Z,2.83
2022-10-09T13:00:43.547Z,2.87
2022-10-09T13:03:38.708Z,2.60
2022-10-09T13:09:05.728Z,2.47
2022-10-09T13:11:47.762Z,2.70
2022-10-09T13:14:30.726Z,2.77
2022-10-09T13:17:07.679Z,2.53
2022-10-09T13:31:28.630Z,3.07
2022-10-09T13:37:36.910Z,2.97
2022-10-09T13:40:18.737Z,2.83
2022-10-09T15:26:36.351Z,3.73
2022-10-09T15:29:12.863Z,3.30
2022-10-09T15:31:44.252Z,3.33
2022-10-09T15:38:06.321Z,3.17
2022-10-09T15:40:45.861Z,3.20
2022-10-09T15:43:19.636Z,3.60
2022-10-09T15:45:57.346Z,3.37
2022-10-09T16:13:48.209Z,3.13
2022-10-09T16:16:19.028Z,2.90
2022-10-09T16:18:51.041Z,3.37
2022-10-09T16:21:36.509Z,3.03
2022-10-09T16:26:59.880Z,3.10
2022-10-09T16:30:18.900Z,3.10
2022-10-09T16:33:21.582Z,2.80
2022-10-09T16:36:05.001Z,3.10
2022-10-09T16:38:35.188Z,3.20
2022-10-09T16:41:04.085Z,2.97
2022-10-09T16:43:34.833Z,2.93
2022-10-09T16:46:17.341Z,3.67
2022-10-09T16:48:50.173Z,3.30
2022-10-09T16:51:24.730Z,3.10
2022-10-09T16:53:56.994Z,3.20
2022-10-09T16:56:28.363Z,2.80
2022-10-09T16:58:58.231Z,2.97
2022-10-09T17:01:26.848Z,2.87
2022-10-09T17:03:57.100Z,2.90
2022-10-09T17:06:28.407Z,2.80
2022-10-09T17:09:00.967Z,2.97
2022-10-09T17:11:30.643Z,2.63
2022-10-09T17:13:59.521Z,2.87
2022-10-09T17:16:30.959Z,3.47
2022-10-09T17:19:04.485Z,2.60
2022-10-09T17:21:34.932Z,3.20
2022-10-09T17:24:06.230Z,3.00
2022-10-09T17:26:39.016Z,3.07
2022-10-09T17:29:08.745Z,3.20
2022-10-09T17:31:37.210Z,3.00
2022-10-09T17:34:07.484Z,2.83
2022-10-09T17:36:38.260Z,3.10
2022-10-09T17:39:23.417Z,3.43
2022-10-09T17:41:52.116Z,3.10
2022-10-09T17:44:29.697Z,3.13
2022-10-09T17:46:58.781Z,3.10
2022-10-09T17:49:35.436Z,3.27
2022-10-09T17:52:05.220Z,3.43
2022-10-09T18:14:26.711Z,3.57
2022-10-09T18:16:57.682Z,3.47
2022-10-09T18:19:28.887Z,3.60
2022-10-09T18:39:51.037Z,3.37
2022-10-09T18:42:21.351Z,3.90
2022-10-09T18:44:50.512Z,4.37
2022-10-09T18:47:39.323Z,4.97
2022-10-09T18:50:12.823Z,4.07
2022-10-09T18:52:43.590Z,3.70
2022-10-09T18:55:15.545Z,3.67
2022-10-09T18:57:44.513Z,3.53
2022-10-09T19:00:14.834Z,3.47
2022-10-09T19:02:43.933Z,3.73
2022-10-09T19:05:13.529Z,3.17
2022-10-09T19:07:43.649Z,4.10
2022-10-09T19:10:15.923Z,3.60
2022-10-09T19:12:46.760Z,3.30
2022-10-09T19:17:59.412Z,4.40
2022-10-09T19:20:33.513Z,3.90
2022-10-09T19:23:04.059Z,4.07
2022-10-09T19:25:35.064Z,3.80
2022-10-09T19:28:04.650Z,3.67
2022-10-09T19:30:36.801Z,4.00
2022-10-09T19:33:09.701Z,3.97
2022-10-09T19:35:48.358Z,3.37
2022-10-09T19:38:19.303Z,3.63
2022-10-09T19:40:50.927Z,3.93
2022-10-09T19:43:21.641Z,3.93
2022-10-09T19:45:53.574Z,4.37
2022-10-09T20:38:41.692Z,3.67
2022-10-09T20:47:17.848Z,3.63
2022-10-09T20:49:49.300Z,3.83
2022-10-09T20:52:25.307Z,3.27
2022-10-09T20:54:58.187Z,3.37
2022-10-09T20:57:27.545Z,3.07
2022-10-09T20:59:59.460Z,3.03
2022-10-09T21:02:42.277Z,3.40
2022-10-09T21:05:12.503Z,3.30
2022-10-09T21:07:43.582Z,2.80
2022-10-09T21:10:12.995Z,3.10
2022-10-09T21:12:42.565Z,3.20
2022-10-09T21:15:11.579Z,3.20
2022-10-09T21:17:43.459Z,3.50
2022-10-09T21:20:12.210Z,3.70
2022-10-09T21:22:41.439Z,4.03
2022-10-09T21:25:11.273Z,3.40
2022-10-09T21:27:40.418Z,3.47
2022-10-09T21:30:11.336Z,3.57
2022-10-09T21:32:47.644Z,3.60
2022-10-09T21:35:17.771Z,3.30
2022-10-09T21:37:47.687Z,3.60
2022-10-09T21:40:19.660Z,3.43
2022-10-09T21:42:50.328Z,3.07
2022-10-09T21:45:20.880Z,3.80
2022-10-09T21:47:52.943Z,3.43
2022-10-09T21:50:22.577Z,3.87
2022-10-09T21:52:52.215Z,3.60
2022-10-09T21:55:26.609Z,3.40
2022-10-09T21:57:56.084Z,3.57
2022-10-09T22:03:20.573Z,3.60
2022-10-09T22:05:50.840Z,3.63
2022-10-09T22:08:22.277Z,3.60
2022-10-09T22:10:50.942Z,3.70
2022-10-09T22:13:20.601Z,4.17
2022-10-09T22:15:51.432Z,3.53
2022-10-09T22:18:22.531Z,4.10
2022-10-09T22:20:53.530Z,3.50
2022-10-09T22:23:23.600Z,3.80
2022-10-09T22:26:00.071Z,3.87
2022-10-09T22:28:29.603Z,3.60
2022-10-09T22:31:11.073Z,3.70
2022-10-09T22:33:42.379Z,3.87
2022-10-09T22:36:16.499Z,3.93
2022-10-09T22:38:46.176Z,3.87
2022-10-09T22:41:29.821Z,3.93
2022-10-09T22:44:04.134Z,4.27
2022-10-09T22:46:36.404Z,4.17
2022-10-09T22:49:09.661Z,3.90
2022-10-09T22:51:39.998Z,4.13
2022-10-09T22:54:10.300Z,4.17
2022-10-09T22:56:41.731Z,4.50
2022-10-09T22:59:19.823Z,4.57
2022-10-09T23:01:53.511Z,4.70
2022-10-09T23:04:29.211Z,3.73
2022-10-09T23:07:04.329Z,4.60
2022-10-09T23:09:34.012Z,4.03
2022-10-09T23:12:03.977Z,3.77
2022-10-09T23:14:33.358Z,4.37
2022-10-09T23:17:03.195Z,4.80
2022-10-09T23:19:35.841Z,4.60
2022-10-09T23:22:08.653Z,4.63
2022-10-09T23:24:39.827Z,5.33
2022-10-09T23:27:09.900Z,5.37
2022-10-09T23:29:39.573Z,5.83
2022-10-09T23:32:09.844Z,5.57
2022-10-09T23:34:41.432Z,6.53
2022-10-09T23:37:12.140Z,6.30
2022-10-09T23:39:42.420Z,6.77
2022-10-09T23:42:11.318Z,6.93
2022-10-09T23:44:43.087Z,6.60
2022-10-09T23:47:12.076Z,6.37
2022-10-09T23:49:44.846Z,6.70
2022-10-09T23:52:15.127Z,9.23
2022-10-09T23:54:45.187Z,8.47
2022-10-09T23:57:15.165Z,8.13
2022-10-09T23:59:46.601Z,7.77
